Time;durP1;ratioP1;P1;durP2;ratioP2;P2;SDS_P1;SDS_P2;PMS_P1;PMS_P2;Temp;Humidity;BMP_temperature;BMP_pressure;BME280_temperature;BME280_humidity;BME280_pressure;Samples;Min_cycle;Max_cycle;Signal;HPM_P1;HPM_P2
2024/02/22 00:00:51;;;;;;;17.50;11.23;;;;;;;6.69;95.68;99858.88;5098048;28;20197;-63
2024/02/22 00:03:19;;;;;;;19.30;11.40;;;;;;;6.69;94.74;99846.91;5092706;28;20216;-64
2024/02/22 00:05:47;;;;;;;18.47;10.33;;;;;;;6.68;95.58;99845.22;5090688;28;20209;-63
2024/02/22 00:08:17;;;;;;;18.20;10.80;;;;;;;6.69;95.71;99841.78;5093183;28;20947;-63
2024/02/22 00:10:45;;;;;;;16.60;10.43;;;;;;;6.69;95.61;99836.66;5092082;28;20607;-65
2024/02/22 00:13:13;;;;;;;18.40;10.10;;;;;;;6.68;94.89;99829.84;5092343;28;20240;-65
2024/02/22 00:15:42;;;;;;;14.73;9.43;;;;;;;6.66;94.71;99836.66;5092072;28;20231;-65
2024/02/22 00:18:10;;;;;;;17.23;9.50;;;;;;;6.67;94.75;99840.09;5093072;28;20215;-62
2024/02/22 00:20:38;;;;;;;19.27;10.40;;;;;;;6.67;94.23;99833.28;5089892;28;20196;-63
2024/02/22 00:23:07;;;;;;;15.73;9.90;;;;;;;6.68;94.68;99834.97;5092677;28;20231;-64
2024/02/22 00:25:36;;;;;;;14.17;9.67;;;;;;;6.68;94.42;99823.88;5092097;28;20209;-63
2024/02/22 00:28:05;;;;;;;15.30;10.10;;;;;;;6.68;93.88;99819.59;5093748;28;20204;-64
2024/02/22 00:30:32;;;;;;;16.20;10.37;;;;;;;6.68;94.65;99822.16;5090823;28;20217;-65
2024/02/22 00:33:01;;;;;;;16.93;9.57;;;;;;;6.69;94.14;99825.56;5091446;28;20626;-64
2024/02/22 00:35:29;;;;;;;15.17;9.60;;;;;;;6.69;93.81;99816.19;5091884;28;20699;-64
2024/02/22 00:37:58;;;;;;;16.27;10.20;;;;;;;6.68;94.72;99814.50;5092461;28;20658;-64
2024/02/22 00:40:26;;;;;;;15.50;8.83;;;;;;;6.72;94.11;99812.78;5087859;28;20212;-64
2024/02/22 00:42:56;;;;;;;13.90;9.43;;;;;;;6.72;94.02;99816.19;5092015;28;20207;-65
2024/02/22 00:45:24;;;;;;;16.77;9.20;;;;;;;6.74;93.21;99811.09;5091257;28;20657;-64
2024/02/22 00:47:52;;;;;;;15.50;8.87;;;;;;;6.73;93.36;99802.53;5090182;28;20575;-64
2024/02/22 00:50:20;;;;;;;13.50;8.07;;;;;;;6.76;92.46;99805.09;5091132;28;20319;-62
2024/02/22 00:52:50;;;;;;;15.13;9.40;;;;;;;6.76;92.45;99799.13;5091611;28;20201;-63
2024/02/22 00:55:19;;;;;;;16.27;9.00;;;;;;;6.79;92.44;99801.69;5090593;28;20204;-63
2024/02/22 00:57:47;;;;;;;17.43;8.63;;;;;;;6.80;92.42;99799.97;5087433;28;20208;-64
2024/02/22 01:00:17;;;;;;;16.47;8.63;;;;;;;6.83;92.35;99787.19;5091696;28;20196;-63
2024/02/22 01:02:45;;;;;;;13.10;8.77;;;;;;;6.83;92.57;99782.91;5092026;28;20216;-61
2024/02/22 01:05:13;;;;;;;14.50;8.37;;;;;;;6.88;92.37;99788.00;5090107;28;20216;-60
2024/02/22 01:07:41;;;;;;;15.67;8.57;;;;;;;6.91;92.21;99793.16;5090064;28;20258;-60
2024/02/22 01:10:09;;;;;;;15.20;9.07;;;;;;;6.91;92.18;99788.88;5091361;28;20212;-57
2024/02/22 01:12:38;;;;;;;12.37;8.47;;;;;;;6.92;91.65;99790.59;5086692;28;20731;-61
2024/02/22 01:15:07;;;;;;;11.90;7.20;;;;;;;6.91;92.20;99790.59;5078229;28;20201;-58
2024/02/22 01:17:36;;;;;;;14.73;8.30;;;;;;;6.91;91.78;99782.91;5097890;28;20212;-59
2024/02/22 01:20:05;;;;;;;17.83;9.23;;;;;;;6.90;91.43;99773.53;5091101;28;20954;-61
2024/02/22 01:22:33;;;;;;;14.40;8.57;;;;;;;6.89;91.36;99782.06;5092431;28;20285;-57
2024/02/22 01:25:01;;;;;;;16.70;8.03;;;;;;;6.88;91.89;99775.22;5083352;28;20658;-63
2024/02/22 01:27:29;;;;;;;13.43;8.77;;;;;;;6.89;90.86;99774.38;5091054;28;20245;-58
2024/02/22 01:29:57;;;;;;;15.43;9.03;;;;;;;6.89;91.52;99766.69;5090807;28;20299;-56
2024/02/22 01:32:25;;;;;;;16.10;8.17;;;;;;;6.91;91.20;99770.94;5083899;28;20216;-59
2024/02/22 01:34:55;;;;;;;14.17;8.87;;;;;;;6.91;90.71;99764.97;5093979;28;20959;-61
2024/02/22 01:37:23;;;;;;;16.50;8.20;;;;;;;6.91;90.92;99749.59;5082154;28;20200;-63
2024/02/22 01:39:51;;;;;;;12.63;8.43;;;;;;;6.89;91.01;99749.63;5089049;28;20541;-60
2024/02/22 01:42:19;;;;;;;15.67;8.67;;;;;;;6.90;90.90;99753.88;5090917;28;20200;-57
2024/02/22 01:44:47;;;;;;;17.03;8.27;;;;;;;6.91;91.33;99745.31;5086790;28;20718;-59
2024/02/22 01:47:16;;;;;;;14.93;8.40;;;;;;;6.94;91.22;99752.16;5091030;28;20673;-58
2024/02/22 01:49:44;;;;;;;16.37;8.47;;;;;;;6.94;90.54;99750.44;5083583;28;20323;-58
2024/02/22 01:52:14;;;;;;;14.73;8.60;;;;;;;6.95;90.89;99738.50;5090650;28;20277;-58
2024/02/22 01:54:42;;;;;;;17.80;8.80;;;;;;;6.96;90.53;99737.66;5089086;28;20212;-60
2024/02/22 01:57:10;;;;;;;13.97;8.33;;;;;;;6.92;90.35;99730.81;5090826;28;20203;-57
2024/02/22 01:59:38;;;;;;;14.00;8.10;;;;;;;6.92;91.23;99729.13;5090654;28;20278;-60
2024/02/22 02:02:06;;;;;;;13.87;8.10;;;;;;;6.93;90.85;99728.28;5084657;28;20337;-58
2024/02/22 02:04:35;;;;;;;15.33;7.77;;;;;;;6.92;90.43;99718.00;5090404;28;20573;-56
2024/02/22 02:07:03;;;;;;;15.63;8.27;;;;;;;6.92;90.45;99715.44;5084093;28;20204;-58
2024/02/22 02:09:32;;;;;;;14.67;8.10;;;;;;;6.90;89.64;99722.28;5097399;28;20216;-57
2024/02/22 02:12:00;;;;;;;15.57;8.40;;;;;;;6.88;89.35;99708.63;5088624;28;20243;-59
2024/02/22 02:14:28;;;;;;;12.93;8.37;;;;;;;6.86;89.71;99697.56;5090740;28;20197;-59
2024/02/22 02:16:57;;;;;;;15.73;7.30;;;;;;;6.87;90.07;99707.78;5090337;28;20199;-57
2024/02/22 02:19:26;;;;;;;17.00;8.10;;;;;;;6.83;89.19;99700.97;5088175;28;20624;-65
2024/02/22 02:22:07;;;;;;;17.27;8.23;;;;;;;6.82;89.17;99698.41;5084732;28;20204;-58
2024/02/22 02:24:42;;;;;;;15.50;8.17;;;;;;;6.75;89.97;99693.28;5087211;28;20203;-59
2024/02/22 02:27:12;;;;;;;14.93;7.83;;;;;;;6.75;89.56;99697.56;5088797;28;20211;-58
2024/02/22 02:29:43;;;;;;;13.13;8.23;;;;;;;6.70;89.88;99686.47;5087684;28;20317;-56
2024/02/22 02:32:12;;;;;;;15.30;8.30;;;;;;;6.71;89.33;99689.03;5088733;28;20204;-61
2024/02/22 02:34:40;;;;;;;11.80;7.77;;;;;;;6.70;89.26;99696.72;5087815;28;20214;-60
2024/02/22 02:37:08;;;;;;;15.97;7.90;;;;;;;6.68;89.44;99691.59;5083635;28;20205;-57
2024/02/22 02:39:36;;;;;;;16.83;8.27;;;;;;;6.66;90.02;99695.00;5084575;28;20198;-58
2024/02/22 02:42:05;;;;;;;12.70;7.90;;;;;;;6.65;89.56;99694.16;5088147;28;20704;-57
2024/02/22 02:44:34;;;;;;;11.60;7.03;;;;;;;6.61;89.95;99681.38;5089149;28;20205;-58
2024/02/22 02:47:06;;;;;;;15.47;8.27;;;;;;;6.58;89.39;99681.38;5088826;28;20204;-56
2024/02/22 02:49:35;;;;;;;15.27;7.97;;;;;;;6.60;90.04;99672.00;5091485;28;20201;-58
2024/02/22 02:52:03;;;;;;;14.03;8.57;;;;;;;6.62;89.90;99671.13;5094195;28;20217;-58
2024/02/22 02:54:31;;;;;;;13.60;7.90;;;;;;;6.60;89.14;99667.72;5094189;28;20649;-56
2024/02/22 02:56:59;;;;;;;11.63;7.90;;;;;;;6.59;89.56;99671.16;5094096;28;20210;-58
2024/02/22 02:59:27;;;;;;;14.63;8.43;;;;;;;6.58;89.00;99669.41;5086621;28;20228;-58
2024/02/22 03:01:57;;;;;;;14.17;7.80;;;;;;;6.55;88.30;99664.31;5092953;28;20604;-61
2024/02/22 03:04:25;;;;;;;11.90;7.30;;;;;;;6.49;88.44;99659.22;5078090;28;20197;-57
2024/02/22 03:06:53;;;;;;;14.53;7.70;;;;;;;6.45;88.53;99654.94;5092600;28;20238;-58
2024/02/22 03:09:21;;;;;;;13.73;7.80;;;;;;;6.38;89.18;99653.25;5094043;28;20236;-58
2024/02/22 03:11:49;;;;;;;15.00;8.17;;;;;;;6.36;88.38;99649.84;5093687;28;20653;-60
2024/02/22 03:14:17;;;;;;;14.60;8.00;;;;;;;6.33;88.60;99648.13;5093473;28;20208;-60
2024/02/22 03:16:45;;;;;;;15.00;8.07;;;;;;;6.30;89.30;99635.34;5093373;28;20630;-58
2024/02/22 03:19:15;;;;;;;13.00;7.63;;;;;;;6.29;89.30;99641.31;5093815;28;20239;-57
2024/02/22 03:21:43;;;;;;;12.27;7.47;;;;;;;6.23;88.38;99642.19;5093355;28;20553;-61
2024/02/22 03:24:11;;;;;;;15.57;8.10;;;;;;;6.20;88.14;99636.22;5090469;28;20201;-60
2024/02/22 03:26:39;;;;;;;15.63;8.07;;;;;;;6.15;88.28;99637.91;5092272;28;20606;-58
2024/02/22 03:29:08;;;;;;;12.27;7.67;;;;;;;6.12;87.88;99628.53;5092361;28;20204;-61
2024/02/22 03:31:36;;;;;;;12.90;7.50;;;;;;;6.08;88.14;99626.84;5089961;28;20372;-60
2024/02/22 03:34:04;;;;;;;14.47;7.67;;;;;;;6.07;88.46;99625.09;5096857;28;20204;-64
2024/02/22 03:36:34;;;;;;;13.73;7.20;;;;;;;6.04;88.09;99622.56;5093637;28;20638;-56
2024/02/22 03:39:04;;;;;;;13.80;7.93;;;;;;;6.03;88.69;99618.28;5095229;28;20658;-57
2024/02/22 03:41:32;;;;;;;15.67;8.50;;;;;;;5.99;87.90;99611.47;5093485;28;20735;-62
2024/02/22 03:44:00;;;;;;;12.97;7.97;;;;;;;5.95;87.88;99608.06;5093456;28;20629;-58
2024/02/22 03:46:29;;;;;;;14.83;7.50;;;;;;;5.92;88.19;99599.50;5092965;28;20658;-59
2024/02/22 03:48:57;;;;;;;13.67;8.03;;;;;;;5.89;87.02;99599.50;5087407;28;20715;-58
2024/02/22 03:51:25;;;;;;;12.63;7.47;;;;;;;5.85;87.69;99593.53;5091756;28;20235;-63
2024/02/22 03:53:54;;;;;;;15.73;8.07;;;;;;;5.82;87.72;99594.41;5092595;28;20212;-59
2024/02/22 03:56:23;;;;;;;11.83;7.83;;;;;;;5.77;87.18;99590.97;5092412;28;20200;-58
2024/02/22 03:58:51;;;;;;;15.87;8.20;;;;;;;5.76;87.55;99586.72;5092930;28;20209;-58
2024/02/22 04:01:19;;;;;;;17.20;8.67;;;;;;;5.75;88.15;99577.38;5092363;28;20680;-58
2024/02/22 04:03:48;;;;;;;17.17;8.90;;;;;;;5.76;88.15;99583.31;5092596;28;20966;-57
2024/02/22 04:06:16;;;;;;;11.80;7.70;;;;;;;5.76;87.31;99589.28;5092133;28;20255;-58
2024/02/22 04:08:45;;;;;;;14.67;8.20;;;;;;;5.74;87.70;99583.34;5083995;28;20204;-59
2024/02/22 04:11:14;;;;;;;12.83;8.17;;;;;;;5.75;87.75;99581.63;5100146;28;20223;-59
2024/02/22 04:13:42;;;;;;;13.77;8.30;;;;;;;5.77;87.84;99580.75;5092625;28;20208;-57
2024/02/22 04:16:10;;;;;;;12.67;7.70;;;;;;;5.78;87.33;99582.47;5090311;28;20607;-57
2024/02/22 04:18:38;;;;;;;13.13;8.37;;;;;;;5.75;86.79;99577.38;5092630;28;20269;-59
2024/02/22 04:21:07;;;;;;;15.97;8.23;;;;;;;5.76;87.04;99579.06;5091333;28;20197;-63
2024/02/22 04:23:35;;;;;;;13.77;8.37;;;;;;;5.75;87.47;99573.97;5091883;28;20728;-62
2024/02/22 04:26:07;;;;;;;13.10;7.70;;;;;;;5.74;86.85;99567.13;5092641;28;20589;-63
2024/02/22 04:28:37;;;;;;;18.60;8.63;;;;;;;5.74;86.44;99575.66;5087312;28;20219;-62
2024/02/22 04:31:05;;;;;;;12.20;7.50;;;;;;;5.73;87.11;99568.81;5092548;28;20250;-62
2024/02/22 04:33:34;;;;;;;13.17;7.97;;;;;;;5.73;87.41;99579.06;5092848;28;20269;-63
2024/02/22 04:36:01;;;;;;;13.27;8.40;;;;;;;5.68;86.85;99565.44;5091931;28;20205;-62
2024/02/22 04:38:30;;;;;;;11.43;8.13;;;;;;;5.65;85.95;99555.19;5089533;28;20201;-63
2024/02/22 04:40:59;;;;;;;14.93;7.70;;;;;;;5.63;86.01;99556.88;5092533;28;20560;-64
2024/02/22 04:43:27;;;;;;;16.07;7.93;;;;;;;5.60;86.21;99556.91;5090304;28;20215;-66
2024/02/22 04:45:56;;;;;;;18.13;8.70;;;;;;;5.57;86.17;99556.91;5086077;28;20554;-62
2024/02/22 04:48:24;;;;;;;12.17;7.63;;;;;;;5.55;86.03;99545.81;5090989;28;20892;-63
2024/02/22 04:50:52;;;;;;;15.00;8.23;;;;;;;5.53;86.68;99544.97;5091385;28;20693;-63
2024/02/22 04:53:21;;;;;;;15.13;7.43;;;;;;;5.50;86.59;99545.81;5090535;28;20565;-64
2024/02/22 04:55:49;;;;;;;15.43;7.47;;;;;;;5.51;86.41;99537.28;5091649;28;20283;-63
2024/02/22 04:58:17;;;;;;;15.40;8.67;;;;;;;5.52;86.38;99533.03;5092161;28;20208;-63
2024/02/22 05:00:46;;;;;;;16.97;8.80;;;;;;;5.50;86.98;99525.38;5089890;28;20204;-62
2024/02/22 05:03:15;;;;;;;14.30;7.90;;;;;;;5.51;86.33;99523.66;5081996;28;20205;-65
2024/02/22 05:05:43;;;;;;;11.23;7.50;;;;;;;5.48;86.61;99521.97;5089067;28;20542;-62
2024/02/22 05:08:12;;;;;;;9.77;7.33;;;;;;;5.48;86.03;99516.84;5091520;28;20204;-64
2024/02/22 05:10:40;;;;;;;16.83;8.67;;;;;;;5.49;86.05;99504.94;5086909;28;20650;-61
2024/02/22 05:13:08;;;;;;;12.30;7.57;;;;;;;5.45;86.09;99496.44;5093700;28;20247;-63
2024/02/22 05:15:36;;;;;;;15.93;8.23;;;;;;;5.44;85.78;99496.41;5091808;28;20661;-63
2024/02/22 05:18:04;;;;;;;14.77;8.37;;;;;;;5.44;86.68;99494.69;5091740;28;20201;-65
2024/02/22 05:20:36;;;;;;;16.43;8.97;;;;;;;5.43;86.25;99487.91;5090896;28;20203;-64
2024/02/22 05:23:05;;;;;;;13.43;7.80;;;;;;;5.44;85.34;99494.69;5091446;28;20192;-63
2024/02/22 05:25:33;;;;;;;13.10;8.27;;;;;;;5.44;85.43;99488.75;5090520;28;20553;-64
2024/02/22 05:28:01;;;;;;;14.57;8.07;;;;;;;5.44;85.92;99484.47;5082952;28;20258;-63
2024/02/22 05:30:30;;;;;;;14.27;7.70;;;;;;;5.50;85.71;99486.22;5089427;28;20200;-63
2024/02/22 05:32:58;;;;;;;13.17;7.20;;;;;;;5.52;85.80;99481.94;5092213;28;20231;-58
2024/02/22 05:35:26;;;;;;;16.40;7.73;;;;;;;5.54;85.48;99480.25;5090388;28;20274;-62
2024/02/22 05:37:55;;;;;;;14.13;7.50;;;;;;;5.53;84.88;99476.84;5089749;28;20205;-61
2024/02/22 05:40:23;;;;;;;14.47;8.17;;;;;;;5.54;85.06;99470.03;5090797;28;20284;-66
2024/02/22 05:42:51;;;;;;;14.10;7.80;;;;;;;5.54;84.40;99475.97;5091370;28;20250;-61
2024/02/22 05:45:34;;;;;;;13.37;7.63;;;;;;;5.55;84.42;99471.72;5092200;28;20633;-62
2024/02/22 05:48:02;;;;;;;12.87;7.23;;;;;;;5.57;85.01;99464.91;5086076;28;20582;-60
2024/02/22 05:50:31;;;;;;;11.60;7.47;;;;;;;5.57;84.73;99460.66;5090058;28;20641;-65
2024/02/22 05:53:00;;;;;;;12.50;7.67;;;;;;;5.57;84.43;99462.34;5085084;28;20216;-61
2024/02/22 05:55:28;;;;;;;15.73;7.93;;;;;;;5.60;83.99;99469.16;5090024;28;20204;-61
2024/02/22 05:57:57;;;;;;;18.03;8.33;;;;;;;5.59;83.79;99465.75;5090862;28;20587;-65
2024/02/22 06:00:25;;;;;;;14.20;8.00;;;;;;;5.57;83.55;99467.47;5088502;28;20211;-64
2024/02/22 06:02:53;;;;;;;16.60;8.10;;;;;;;5.62;83.68;99468.31;5099547;28;20584;-64
2024/02/22 06:05:22;;;;;;;14.53;8.53;;;;;;;5.64;83.74;99461.50;5080412;28;20669;-64
2024/02/22 06:07:50;;;;;;;12.10;7.27;;;;;;;5.67;83.91;99465.72;5090613;28;20292;-61
2024/02/22 06:10:19;;;;;;;13.20;8.03;;;;;;;5.70;83.63;99456.34;5090329;28;20291;-62
2024/02/22 06:12:48;;;;;;;12.87;7.53;;;;;;;5.74;82.45;99457.22;5085623;28;20709;-61
2024/02/22 06:15:17;;;;;;;13.47;7.33;;;;;;;5.74;83.03;99458.09;5092241;28;20219;-63
2024/02/22 06:17:45;;;;;;;16.77;7.83;;;;;;;5.75;81.85;99454.66;5083984;28;20220;-62
2024/02/22 06:20:14;;;;;;;13.87;7.23;;;;;;;5.78;82.78;99464.88;5088455;28;20281;-62
2024/02/22 06:22:45;;;;;;;16.03;7.07;;;;;;;5.78;82.26;99457.22;5091359;28;20193;-62
2024/02/22 06:25:14;;;;;;;14.40;8.07;;;;;;;5.79;82.79;99455.50;5093938;28;20234;-61
2024/02/22 06:27:44;;;;;;;13.43;8.30;;;;;;;5.82;82.42;99453.81;5094245;28;20203;-65
2024/02/22 06:30:14;;;;;;;15.13;8.30;;;;;;;5.87;82.49;99437.59;5083604;28;20653;-62
2024/02/22 06:32:43;;;;;;;14.47;7.37;;;;;;;5.91;82.73;99437.59;5093954;28;20693;-62
2024/02/22 06:35:12;;;;;;;15.93;7.83;;;;;;;5.96;81.06;99437.59;5093781;28;20657;-63
2024/02/22 06:37:40;;;;;;;11.60;8.13;;;;;;;5.97;81.29;99432.50;5087742;28;20211;-62
2024/02/22 06:40:09;;;;;;;17.93;8.37;;;;;;;6.02;81.85;99435.03;5090068;28;20608;-67
2024/02/22 06:42:41;;;;;;;17.87;8.27;;;;;;;6.04;81.07;99430.78;5094972;28;20692;-63
2024/02/22 06:45:15;;;;;;;13.70;7.50;;;;;;;6.06;81.37;99423.94;5081973;28;20211;-61
2024/02/22 06:47:43;;;;;;;12.03;7.73;;;;;;;6.11;81.07;99422.19;5094348;28;20622;-61
2024/02/22 06:50:11;;;;;;;13.60;8.20;;;;;;;6.13;80.96;99425.63;5092918;28;20211;-62
2024/02/22 06:52:39;;;;;;;13.40;7.53;;;;;;;6.18;80.95;99429.00;5093534;28;20266;-63
2024/02/22 06:55:08;;;;;;;13.10;7.07;;;;;;;6.25;80.44;99422.16;5090768;28;20201;-62
2024/02/22 06:57:38;;;;;;;14.03;7.33;;;;;;;6.35;81.05;99412.75;5093613;28;20720;-63
2024/02/22 07:00:09;;;;;;;12.93;8.03;;;;;;;6.45;79.85;99409.28;5093355;28;20243;-64
2024/02/22 07:02:38;;;;;;;11.57;7.33;;;;;;;6.56;80.17;99409.22;5094128;28;20192;-64
2024/02/22 07:05:07;;;;;;;12.50;7.00;;;;;;;6.65;79.24;99407.44;5089672;28;20239;-62
2024/02/22 07:07:35;;;;;;;11.17;7.00;;;;;;;6.74;78.14;99404.84;5085335;28;20288;-61
2024/02/22 07:10:04;;;;;;;11.00;7.13;;;;;;;6.84;77.87;99405.63;5095582;28;20204;-63
2024/02/22 07:12:32;;;;;;;13.47;6.77;;;;;;;6.89;77.51;99392.81;5088293;28;20228;-64
2024/02/22 07:15:00;;;;;;;11.67;6.87;;;;;;;6.92;76.41;99387.63;5089232;28;20207;-69
2024/02/22 07:17:29;;;;;;;11.10;6.47;;;;;;;6.91;76.81;99386.78;5092309;28;20228;-64
2024/02/22 07:19:58;;;;;;;10.50;7.00;;;;;;;6.95;77.59;99388.47;5093586;28;20212;-63
2024/02/22 07:22:26;;;;;;;12.13;6.87;;;;;;;6.98;77.29;99396.13;5088342;28;20254;-65
2024/02/22 07:24:54;;;;;;;13.43;7.07;;;;;;;7.04;76.71;99397.81;5084012;28;20200;-60
2024/02/22 07:27:22;;;;;;;11.87;6.83;;;;;;;7.10;76.38;99400.31;5094386;28;20684;-63
2024/02/22 07:29:50;;;;;;;11.57;6.90;;;;;;;7.10;76.59;99400.31;5088480;28;20321;-64
2024/02/22 07:32:18;;;;;;;11.43;6.70;;;;;;;7.14;76.58;99388.31;5081716;28;20712;-62
2024/02/22 07:34:46;;;;;;;12.90;6.47;;;;;;;7.13;75.76;99392.59;5085581;28;20212;-64
2024/02/22 07:37:16;;;;;;;11.60;6.43;;;;;;;7.14;75.43;99389.19;5091544;28;20699;-63
2024/02/22 07:39:45;;;;;;;8.87;6.20;;;;;;;7.19;75.32;99379.75;5089652;28;20654;-61
2024/02/22 07:42:13;;;;;;;9.97;6.37;;;;;;;7.26;75.81;99383.97;5091708;28;20205;-61
2024/02/22 07:44:44;;;;;;;12.07;6.47;;;;;;;7.31;75.14;99377.94;5088490;28;20197;-66
2024/02/22 07:47:13;;;;;;;13.97;6.50;;;;;;;7.37;75.47;99371.06;5091322;28;20201;-62
2024/02/22 07:49:41;;;;;;;10.33;6.47;;;;;;;7.44;74.80;99371.84;5088322;28;20626;-63
2024/02/22 07:52:09;;;;;;;10.30;6.40;;;;;;;7.44;74.11;99362.44;5091987;28;20211;-62
2024/02/22 07:54:40;;;;;;;12.27;6.33;;;;;;;7.45;74.16;99353.03;5089867;28;20194;-63
2024/02/22 07:57:09;;;;;;;11.90;6.17;;;;;;;7.46;74.47;99344.47;5087831;28;20215;-64
2024/02/22 07:59:37;;;;;;;11.07;6.00;;;;;;;7.50;73.89;99346.13;5087573;28;20228;-59
2024/02/22 08:02:05;;;;;;;9.30;6.40;;;;;;;7.51;74.01;99337.56;5092264;28;20715;-63
2024/02/22 08:04:33;;;;;;;11.20;6.47;;;;;;;7.56;73.82;99330.69;5090727;28;20637;-62
2024/02/22 08:07:04;;;;;;;12.07;6.40;;;;;;;7.59;73.74;99333.22;5091585;28;20614;-61
2024/02/22 08:09:32;;;;;;;9.90;5.40;;;;;;;7.69;74.04;99324.53;5091574;28;20645;-62
2024/02/22 08:12:03;;;;;;;13.60;5.87;;;;;;;7.92;74.03;99320.88;5096403;28;20228;-63
2024/02/22 08:14:32;;;;;;;12.70;6.20;;;;;;;8.09;71.78;99316.38;5088884;28;20217;-62
2024/02/22 08:17:00;;;;;;;13.00;6.30;;;;;;;8.17;70.90;99319.72;5092265;28;20822;-61
2024/02/22 08:19:30;;;;;;;12.17;6.30;;;;;;;8.26;70.84;99320.44;5092622;28;20293;-61
2024/02/22 08:21:58;;;;;;;8.67;5.37;;;;;;;8.28;70.47;99321.25;5091930;28;20289;-62
2024/02/22 08:24:26;;;;;;;15.43;6.27;;;;;;;8.27;69.88;99315.28;5091716;28;20197;-60
2024/02/22 08:26:55;;;;;;;12.90;5.70;;;;;;;8.20;69.62;99311.09;5088375;28;20224;-62
2024/02/22 08:29:24;;;;;;;9.60;5.77;;;;;;;8.20;69.71;99314.50;5090444;28;20208;-62
2024/02/22 08:31:52;;;;;;;10.17;5.97;;;;;;;8.21;70.00;99315.34;5091276;28;20200;-62
2024/02/22 08:34:20;;;;;;;9.40;5.83;;;;;;;8.24;69.68;99310.19;5091700;28;20223;-62
2024/02/22 08:36:48;;;;;;;10.03;5.77;;;;;;;8.36;69.57;99315.16;5089510;28;20213;-61
2024/02/22 08:39:18;;;;;;;7.67;5.03;;;;;;;8.43;69.63;99303.97;5091932;28;20230;-61
2024/02/22 08:41:46;;;;;;;11.47;6.37;;;;;;;8.54;68.50;99310.63;5092200;28;20201;-63
2024/02/22 08:44:14;;;;;;;11.97;5.70;;;;;;;8.54;68.72;99298.63;5087785;28;20208;-65
2024/02/22 08:46:43;;;;;;;9.63;5.30;;;;;;;8.58;68.39;99300.31;5091498;28;20653;-62
2024/02/22 08:49:12;;;;;;;7.40;4.97;;;;;;;8.70;68.83;99294.13;5083480;28;20257;-59
2024/02/22 08:51:40;;;;;;;12.30;6.80;;;;;;;8.83;68.63;99285.34;5084475;28;20215;-65
2024/02/22 08:54:08;;;;;;;7.83;5.30;;;;;;;8.91;67.49;99292.91;5089972;28;20239;-62
2024/02/22 08:56:36;;;;;;;11.13;5.70;;;;;;;8.93;67.24;99288.59;5089164;28;20205;-63
2024/02/22 08:59:04;;;;;;;9.70;5.47;;;;;;;8.93;67.18;99286.03;5092095;28;20209;-61
2024/02/22 09:01:34;;;;;;;14.40;5.17;;;;;;;8.89;67.34;99281.84;5088526;28;20207;-60
2024/02/22 09:04:03;;;;;;;8.33;5.27;;;;;;;8.89;67.19;99282.69;5089908;28;20726;-61
2024/02/22 09:06:32;;;;;;;8.40;5.13;;;;;;;8.96;67.32;99286.00;5091998;28;20677;-63
2024/02/22 09:09:01;;;;;;;10.27;5.20;;;;;;;9.00;67.39;99282.50;5089402;28;20197;-63
2024/02/22 09:11:30;;;;;;;13.83;6.13;;;;;;;9.03;67.09;99282.44;5089699;28;20229;-63
2024/02/22 09:13:59;;;;;;;7.43;5.27;;;;;;;9.04;66.94;99275.56;5089381;28;20263;-62
2024/02/22 09:16:27;;;;;;;8.60;5.13;;;;;;;9.07;66.83;99271.25;5088934;28;20685;-64
2024/02/22 09:18:55;;;;;;;6.17;4.43;;;;;;;9.11;66.79;99264.31;5088792;28;20699;-63
2024/02/22 09:21:24;;;;;;;7.53;5.03;;;;;;;9.13;66.75;99266.00;5090114;28;20672;-62
2024/02/22 09:23:52;;;;;;;9.37;5.00;;;;;;;9.15;65.86;99260.81;5091748;28;20538;-63
2024/02/22 09:26:22;;;;;;;7.63;4.97;;;;;;;9.17;65.90;99254.78;5090516;28;20208;-64
2024/02/22 09:28:50;;;;;;;10.03;4.70;;;;;;;9.19;65.78;99252.16;5090597;28;20197;-65
2024/02/22 09:31:18;;;;;;;10.57;5.13;;;;;;;9.23;65.79;99248.66;5090118;28;20615;-64
2024/02/22 09:33:47;;;;;;;7.00;4.20;;;;;;;9.33;66.22;99245.03;5083484;28;20221;-66
2024/02/22 09:36:16;;;;;;;9.47;5.53;;;;;;;9.44;65.88;99231.97;5090728;28;20246;-61
2024/02/22 09:38:46;;;;;;;8.63;4.40;;;;;;;9.58;65.43;99226.56;5084619;28;20639;-64
2024/02/22 09:41:14;;;;;;;11.07;5.30;;;;;;;9.67;64.63;99228.94;5091141;28;20247;-64
2024/02/22 09:43:43;;;;;;;8.10;4.30;;;;;;;9.77;64.19;99234.75;5086141;28;20202;-63
2024/02/22 09:46:11;;;;;;;10.87;5.37;;;;;;;9.81;64.49;99226.06;5086292;28;20704;-65
2024/02/22 09:48:39;;;;;;;7.63;4.77;;;;;;;9.83;64.40;99234.59;5090621;28;20653;-62
2024/02/22 09:51:08;;;;;;;8.67;4.57;;;;;;;9.82;64.50;99235.47;5088103;28;20250;-65
2024/02/22 09:53:37;;;;;;;8.13;4.17;;;;;;;9.78;63.94;99221.00;5085578;28;20700;-63
2024/02/22 09:56:09;;;;;;;9.97;4.37;;;;;;;9.72;64.32;99228.81;5090398;28;20254;-65
2024/02/22 09:58:38;;;;;;;8.50;4.20;;;;;;;9.63;63.95;99223.00;5090013;28;20190;-63
2024/02/22 10:01:07;;;;;;;5.37;4.00;;;;;;;9.58;64.01;99221.41;5088311;28;20683;-65
2024/02/22 10:03:36;;;;;;;6.67;4.17;;;;;;;9.59;64.38;99221.38;5091319;28;20234;-64
2024/02/22 10:06:05;;;;;;;9.33;4.53;;;;;;;9.60;64.50;99212.78;5090944;28;20649;-65
2024/02/22 10:08:33;;;;;;;6.80;4.23;;;;;;;9.58;64.29;99216.28;5085828;28;21671;-64
2024/02/22 10:11:09;;;;;;;5.53;3.83;;;;;;;9.54;64.54;99207.78;5087308;28;20197;-64
2024/02/22 10:13:37;;;;;;;8.83;4.93;;;;;;;9.55;64.58;99204.31;5084588;28;20204;-65
2024/02/22 10:16:12;;;;;;;7.20;4.13;;;;;;;9.57;64.71;99197.44;5089755;28;20649;-63
2024/02/22 10:18:41;;;;;;;9.37;4.53;;;;;;;9.61;65.22;99193.03;5090924;28;20313;-65
2024/02/22 10:21:14;;;;;;;8.07;5.10;;;;;;;9.67;64.59;99193.75;5091485;28;20193;-63
2024/02/22 10:23:42;;;;;;;6.70;4.47;;;;;;;9.74;64.15;99198.78;5079829;28;20661;-63
2024/02/22 10:26:11;;;;;;;6.80;3.67;;;;;;;9.77;64.31;99184.13;5091297;28;20200;-64
2024/02/22 10:28:40;;;;;;;7.30;3.73;;;;;;;9.78;63.50;99179.81;5081924;28;20204;-65
2024/02/22 10:31:08;;;;;;;8.80;4.50;;;;;;;9.76;64.12;99179.03;5077112;28;20205;-64
2024/02/22 10:33:38;;;;;;;7.47;4.20;;;;;;;9.79;64.18;99176.38;5091386;28;20594;-63
2024/02/22 10:36:08;;;;;;;6.33;3.67;;;;;;;9.80;63.91;99172.94;5096888;28;20239;-64
2024/02/22 10:38:37;;;;;;;5.80;3.87;;;;;;;9.81;64.25;99170.31;5091225;28;20208;-64
2024/02/22 10:41:06;;;;;;;7.23;3.80;;;;;;;9.84;64.20;99159.97;5091024;28;20722;-64
2024/02/22 10:43:37;;;;;;;6.80;3.90;;;;;;;9.88;64.24;99150.44;5091391;28;20570;-64
2024/02/22 10:46:09;;;;;;;5.60;3.90;;;;;;;9.89;63.79;99144.41;5075583;28;20198;-65
2024/02/22 10:48:46;;;;;;;9.30;3.63;;;;;;;9.84;63.23;99143.69;5089393;28;20207;-63
2024/02/22 10:51:19;;;;;;;6.80;3.60;;;;;;;9.81;63.41;99142.00;5086430;28;20205;-66
2024/02/22 10:53:52;;;;;;;5.63;3.77;;;;;;;9.78;63.39;99133.53;5090701;28;20211;-59
2024/02/22 10:56:23;;;;;;;6.67;4.07;;;;;;;9.72;63.54;99138.78;5084695;28;20239;-66
2024/02/22 10:58:56;;;;;;;9.50;3.77;;;;;;;9.66;63.81;99127.78;5092110;28;20216;-64
2024/02/22 11:01:27;;;;;;;7.13;3.80;;;;;;;9.63;63.81;99135.56;5085403;28;20208;-60
2024/02/22 11:03:56;;;;;;;6.10;3.47;;;;;;;9.60;64.43;99135.63;5089742;28;20725;-62
2024/02/22 11:06:26;;;;;;;6.33;3.70;;;;;;;9.61;64.38;99133.88;5089269;28;20197;-62
2024/02/22 11:09:00;;;;;;;8.90;4.00;;;;;;;9.59;64.71;99128.78;5081519;28;20202;-63
2024/02/22 11:11:30;;;;;;;7.10;3.57;;;;;;;9.60;63.75;99127.91;5083764;28;20208;-62
2024/02/22 11:14:02;;;;;;;6.30;3.77;;;;;;;9.59;64.28;99131.38;5090715;28;20220;-60
2024/02/22 11:16:34;;;;;;;6.87;3.83;;;;;;;9.61;64.31;99128.75;5090745;28;20570;-62
2024/02/22 11:19:09;;;;;;;6.83;3.80;;;;;;;9.63;64.43;99125.28;5078181;28;20256;-62
2024/02/22 11:21:38;;;;;;;8.33;3.77;;;;;;;9.65;64.52;99123.53;5088902;28;20204;-61
2024/02/22 11:24:10;;;;;;;5.80;3.90;;;;;;;9.65;64.50;99113.22;5092264;28;20203;-63
2024/02/22 11:26:39;;;;;;;5.87;3.87;;;;;;;9.67;64.87;99115.75;5079943;28;20932;-64
2024/02/22 11:29:09;;;;;;;7.27;4.20;;;;;;;9.65;64.27;99108.09;5092898;28;20691;-63
2024/02/22 11:31:37;;;;;;;5.97;4.37;;;;;;;9.68;64.67;99096.88;5073020;28;20291;-62
2024/02/22 11:34:06;;;;;;;9.77;3.93;;;;;;;9.70;64.44;99096.84;5084415;28;20687;-63
2024/02/22 11:36:34;;;;;;;6.37;3.67;;;;;;;9.71;64.69;99090.81;5086608;28;20622;-62
2024/02/22 11:39:06;;;;;;;6.60;3.50;;;;;;;9.74;64.19;99080.47;5078177;28;20201;-63
2024/02/22 11:41:34;;;;;;;6.13;3.77;;;;;;;9.74;64.32;99071.00;5091224;28;20286;-64